Time;durP1;ratioP1;P1;durP2;ratioP2;P2;SDS_P1;SDS_P2;PMS_P1;PMS_P2;Temp;Humidity;BMP_temperature;BMP_pressure;BME280_temperature;BME280_humidity;BME280_pressure;Samples;Min_cycle;Max_cycle;Signal;HPM_P1;HPM_P2
2022/11/10 00:01:42;;;;;;;;;1.00;1.00;;;;;11.23;80.83;101549.16;5039612;28;9535;-65
2022/11/10 00:04:27;;;;;;;;;3.00;1.75;;;;;11.23;81.12;101548.31;5042975;28;9597;-65
2022/11/10 00:07:11;;;;;;;;;1.50;1.00;;;;;11.22;81.24;101552.88;5049938;28;9598;-64
2022/11/10 00:09:57;;;;;;;;;1.00;1.00;;;;;11.21;80.82;101566.50;5048200;28;9601;-64
2022/11/10 00:12:42;;;;;;;;;2.50;2.50;;;;;11.18;80.83;101559.63;5052709;28;9666;-64
2022/11/10 00:18:31;;;;;;;;;2.00;2.00;;;;;11.16;80.74;101563.53;5032970;28;9752;-65
2022/11/10 00:21:17;;;;;;;;;3.00;3.00;;;;;11.14;81.00;101553.78;5036105;28;9891;-65
2022/11/10 00:24:02;;;;;;;;;6.00;3.00;;;;;11.16;81.03;101553.56;5051714;28;9677;-65
2022/11/10 00:26:48;;;;;;;;;3.00;3.00;;;;;11.13;80.70;101553.94;5053242;28;9731;-65
2022/11/10 00:29:33;;;;;;;;;6.75;5.00;;;;;11.14;80.86;101563.72;5051577;28;9661;-65
2022/11/10 00:32:18;;;;;;;;;5.25;5.00;;;;;11.16;81.00;101567.06;5050400;28;9832;-64
2022/11/10 00:35:04;;;;;;;;;5.00;3.25;;;;;11.12;81.06;101568.44;5050399;28;9953;-64
2022/11/10 00:37:50;;;;;;;;;8.25;3.50;;;;;11.11;81.18;101575.69;5045465;28;10127;-64
2022/11/10 00:40:35;;;;;;;;;7.50;5.50;;;;;11.10;81.06;101575.84;5047865;28;10691;-64
2022/11/10 00:43:20;;;;;;;;;3.50;3.50;;;;;11.10;80.95;101582.09;5051740;28;9749;-64
2022/11/10 00:46:10;;;;;;;;;9.00;5.50;;;;;11.03;80.68;101577.59;5051511;28;9846;-64
2022/11/10 00:48:55;;;;;;;;;6.50;5.00;;;;;10.93;81.16;101579.66;5043955;28;9833;-64
2022/11/10 00:51:40;;;;;;;;;5.25;5.25;;;;;10.95;81.63;101588.44;5043241;28;9864;-65
2022/11/10 00:54:26;;;;;;;;;6.00;5.00;;;;;10.98;81.42;101596.13;5048015;28;9928;-64
2022/11/10 00:57:11;;;;;;;;;5.75;4.75;;;;;10.95;81.56;101600.03;5051019;28;9917;-65
2022/11/10 00:59:55;;;;;;;;;6.00;5.75;;;;;10.89;81.33;101596.19;5047469;28;9842;-66
2022/11/10 01:02:40;;;;;;;;;5.50;4.75;;;;;10.91;81.55;101593.34;5044031;28;10787;-65
2022/11/10 01:05:25;;;;;;;;;4.25;4.25;;;;;10.95;81.80;101599.22;5052006;28;9746;-65
2022/11/10 01:08:10;;;;;;;;;7.75;6.50;;;;;10.89;81.78;101596.19;5051123;28;9777;-65
2022/11/10 01:11:14;;;;;;;;;8.50;5.00;;;;;10.87;81.80;101609.00;5040050;28;10026;-65
2022/11/10 01:13:59;;;;;;;;;4.50;4.50;;;;;10.91;81.96;101600.56;5046099;28;9927;-64
2022/11/10 01:16:43;;;;;;;;;4.50;2.50;;;;;10.96;82.12;101595.47;5051125;28;9837;-64
2022/11/10 01:19:28;;;;;;;;;9.50;6.25;;;;;10.92;81.55;101599.56;5051270;28;10673;-65
2022/11/10 01:22:13;;;;;;;;;1.75;1.75;;;;;10.92;81.75;101594.16;5047233;28;9906;-65
2022/11/10 01:24:58;;;;;;;;;4.25;3.50;;;;;10.98;81.88;101590.75;5032926;28;9894;-64
2022/11/10 01:27:43;;;;;;;;;4.00;2.00;;;;;10.96;81.54;101593.63;5051541;28;9665;-64
2022/11/10 01:30:28;;;;;;;;;3.75;3.75;;;;;10.90;81.70;101594.34;5043532;28;9839;-65
2022/11/10 01:33:13;;;;;;;;;2.50;2.50;;;;;10.89;81.94;101600.72;5048873;28;10579;-64
2022/11/10 01:35:58;;;;;;;;;4.50;4.25;;;;;10.92;81.73;101611.16;5034234;28;9707;-65
2022/11/10 01:38:43;;;;;;;;;7.75;5.75;;;;;10.84;81.98;101614.75;5038299;28;9751;-65
2022/11/10 01:41:28;;;;;;;;;3.50;3.50;;;;;10.90;82.43;101621.28;5047423;28;10009;-65
2022/11/10 01:44:18;;;;;;;;;5.00;5.00;;;;;10.91;82.50;101631.03;5045034;28;10580;-64
2022/11/10 01:47:04;;;;;;;;;2.50;2.50;;;;;10.93;82.56;101633.53;5045394;28;9923;-65
2022/11/10 01:49:48;;;;;;;;;5.25;5.00;;;;;10.99;82.17;101639.06;5048621;28;9964;-65
2022/11/10 01:52:35;;;;;;;;;7.00;4.50;;;;;10.98;81.95;101632.03;5039998;28;9875;-65
2022/11/10 01:55:23;;;;;;;;;1.00;1.00;;;;;11.01;81.90;101633.50;5050117;28;9930;-65
2022/11/10 01:58:11;;;;;;;;;5.50;5.25;;;;;11.01;81.74;101631.63;5048965;28;9644;-64
2022/11/10 02:00:56;;;;;;;;;6.00;5.00;;;;;11.02;82.26;101632.47;5032546;28;9977;-64
2022/11/10 02:03:48;;;;;;;;;3.75;2.00;;;;;11.01;81.93;101641.59;5038498;28;9916;-65
2022/11/10 02:06:37;;;;;;;;;3.00;3.00;;;;;10.93;82.12;101641.63;5047583;28;9869;-64
2022/11/10 02:09:22;;;;;;;;;6.00;5.00;;;;;10.94;82.51;101652.25;5045566;28;10091;-64
2022/11/10 02:12:07;;;;;;;;;4.50;3.25;;;;;10.93;82.26;101652.41;5041964;28;10750;-63
2022/11/10 02:14:52;;;;;;;;;6.75;5.50;;;;;10.87;82.49;101657.50;5043306;28;9775;-64
2022/11/10 02:17:37;;;;;;;;;5.00;5.00;;;;;10.85;82.60;101651.41;5050599;28;10010;-65
2022/11/10 02:20:22;;;;;;;;;7.50;5.00;;;;;10.91;82.63;101670.63;5046354;28;9846;-65
2022/11/10 02:23:34;;;;;;;;;8.50;5.50;;;;;10.84;82.88;101660.53;5049866;28;9839;-64
2022/11/10 02:26:23;;;;;;;;;5.25;4.00;;;;;10.88;82.86;101656.47;5038854;28;9928;-63
2022/11/10 02:29:09;;;;;;;;;7.25;7.25;;;;;10.92;82.86;101667.72;5050163;28;9906;-64
2022/11/10 02:31:53;;;;;;;;;4.50;4.50;;;;;10.97;82.83;101670.72;5041062;28;10024;-65
2022/11/10 02:34:39;;;;;;;;;3.00;3.00;;;;;10.94;82.51;101673.78;5048301;28;9746;-65
2022/11/10 02:37:24;;;;;;;;;3.00;1.50;;;;;10.91;82.60;101668.75;5047798;28;9872;-65
2022/11/10 02:40:09;;;;;;;;;9.25;6.00;;;;;10.86;82.70;101676.53;5049464;28;9677;-64
2022/11/10 02:42:54;;;;;;;;;6.50;4.50;;;;;10.86;82.39;101673.84;5042527;28;10083;-64
2022/11/10 02:45:48;;;;;;;;;8.00;6.50;;;;;10.84;82.72;101686.63;5043016;28;9865;-64
2022/11/10 02:48:33;;;;;;;;;5.75;5.00;;;;;10.85;82.56;101680.22;5030221;28;10630;-65
2022/11/10 02:51:18;;;;;;;;;4.50;4.50;;;;;10.84;82.28;101692.84;5035763;28;9869;-65
2022/11/10 02:54:05;;;;;;;;;6.00;4.00;;;;;10.82;82.51;101685.97;5045041;28;9824;-65
2022/11/10 02:56:49;;;;;;;;;2.00;2.00;;;;;10.83;82.87;101680.41;5048447;28;9910;-65
2022/11/10 02:59:34;;;;;;;;;5.25;3.00;;;;;10.86;82.28;101684.59;5049278;28;9859;-66
2022/11/10 03:02:19;;;;;;;;;3.00;3.00;;;;;10.84;82.68;101689.31;5043732;28;9856;-64
2022/11/10 03:05:04;;;;;;;;;2.50;1.00;;;;;10.85;82.37;101688.28;5039131;28;9984;-64
2022/11/10 03:07:57;;;;;;;;;5.25;2.25;;;;;10.85;82.40;101696.38;5041333;28;9784;-65
2022/11/10 03:10:42;;;;;;;;;3.25;1.00;;;;;10.85;82.22;101696.38;5045764;28;9946;-64
2022/11/10 03:13:26;;;;;;;;;7.25;5.00;;;;;10.81;82.10;101703.97;5045028;28;9732;-64
2022/11/10 03:16:31;;;;;;;;;3.75;3.75;;;;;10.78;82.49;101698.94;5049410;28;10742;-64
2022/11/10 03:19:16;;;;;;;;;5.00;5.00;;;;;10.78;82.41;101704.34;5050050;28;10811;-64
2022/11/10 03:22:01;;;;;;;;;6.75;4.50;;;;;10.81;82.33;101701.25;5043502;28;10101;-64
2022/11/10 03:24:46;;;;;;;;;2.50;2.00;;;;;10.80;82.45;101709.53;5048196;28;9824;-64
2022/11/10 03:27:31;;;;;;;;;2.00;2.00;;;;;10.79;82.75;101707.88;5041634;28;10001;-64
2022/11/10 03:30:16;;;;;;;;;2.50;2.50;;;;;10.83;82.28;101710.03;5043598;28;12261;-64
2022/11/10 03:33:02;;;;;;;;;2.25;2.25;;;;;10.79;82.75;101715.94;5049641;28;10073;-63
2022/11/10 03:35:47;;;;;;;;;3.50;2.50;;;;;10.80;82.50;101717.63;5051663;28;9850;-64
2022/11/10 03:38:31;;;;;;;;;2.50;2.50;;;;;10.81;82.37;101725.50;5053638;28;9973;-64
2022/11/10 03:41:16;;;;;;;;;3.75;2.50;;;;;10.80;82.26;101725.69;5040952;28;9945;-63
2022/11/10 03:44:04;;;;;;;;;3.00;3.00;;;;;10.72;82.33;101733.81;5048287;28;10053;-64
2022/11/10 03:46:49;;;;;;;;;2.75;2.75;;;;;10.75;82.35;101750.47;5052807;28;9897;-64
2022/11/10 03:49:35;;;;;;;;;3.00;3.00;;;;;10.74;82.28;101738.00;5047735;28;9995;-64
2022/11/10 03:52:20;;;;;;;;;3.50;3.50;;;;;10.80;82.29;101758.84;5046844;28;9863;-64
2022/11/10 03:55:05;;;;;;;;;1.75;1.00;;;;;10.78;82.00;101760.88;5049019;28;9929;-64
2022/11/10 03:57:51;;;;;;;;;2.00;2.00;;;;;10.79;82.11;101773.34;5045852;28;10538;-64
2022/11/10 04:00:36;;;;;;;;;9.50;5.50;;;;;10.74;82.28;101770.31;5048777;28;9929;-64
2022/11/10 04:03:21;;;;;;;;;6.25;3.75;;;;;10.77;82.34;101769.13;5052909;28;10107;-63
2022/11/10 04:09:13;;;;;;;;;5.50;4.00;;;;;10.74;82.14;101769.50;5052889;28;10001;-64
2022/11/10 04:18:24;;;;;;;;;4.00;2.00;;;;;10.71;81.93;101778.75;5047584;28;9910;-64
2022/11/10 04:21:11;;;;;;;;;5.75;5.75;;;;;10.63;81.99;101774.22;5046033;28;9894;-64
2022/11/10 04:23:55;;;;;;;;;5.25;5.25;;;;;10.59;82.53;101778.25;5046820;28;10123;-63
2022/11/10 04:26:42;;;;;;;;;2.50;1.50;;;;;10.64;82.62;101783.13;5046439;28;10155;-63
2022/11/10 04:29:27;;;;;;;;;9.25;5.50;;;;;10.54;82.41;101790.56;5052466;28;9811;-63
2022/11/10 04:32:12;;;;;;;;;8.75;5.00;;;;;10.51;82.65;101797.13;5048474;28;9917;-62
2022/11/10 04:34:57;;;;;;;;;4.25;3.00;;;;;10.56;82.43;101812.75;5035769;28;10086;-64
2022/11/10 04:37:41;;;;;;;;;4.00;2.00;;;;;10.57;82.34;101812.59;5052847;28;10016;-63
2022/11/10 04:40:26;;;;;;;;;8.50;5.75;;;;;10.51;82.28;101815.97;5049888;28;9814;-64
2022/11/10 04:43:11;;;;;;;;;3.50;1.25;;;;;10.52;82.38;101827.56;5049350;28;10053;-65
2022/11/10 04:45:56;;;;;;;;;3.00;2.50;;;;;10.52;82.68;101824.88;5046087;28;9897;-63
2022/11/10 04:48:41;;;;;;;;;3.50;1.25;;;;;10.51;82.34;101829.44;5032624;28;10131;-64
2022/11/10 04:51:32;;;;;;;;;0.25;0.25;;;;;10.47;82.25;101838.00;5046979;28;9942;-64
2022/11/10 04:54:17;;;;;;;;;6.00;1.00;;;;;10.52;82.60;101838.34;5049020;28;10103;-63
2022/11/10 04:57:02;;;;;;;;;3.00;3.00;;;;;10.44;82.03;101839.19;5043956;28;10748;-63
2022/11/10 04:59:47;;;;;;;;;5.00;1.25;;;;;10.42;82.36;101835.00;5042985;28;10815;-64
2022/11/10 05:02:32;;;;;;;;;1.50;1.50;;;;;10.44;82.76;101835.66;5046115;28;9929;-65
2022/11/10 05:05:23;;;;;;;;;6.00;5.00;;;;;10.47;82.48;101838.00;5046497;28;10676;-63
2022/11/10 05:08:08;;;;;;;;;2.25;1.75;;;;;10.46;82.44;101833.66;5052004;28;10086;-64
2022/11/10 05:10:53;;;;;;;;;3.50;2.50;;;;;10.54;82.56;101839.88;5050481;28;9936;-64
2022/11/10 05:13:38;;;;;;;;;5.50;5.25;;;;;10.49;82.22;101833.28;5048131;28;9900;-64
2022/11/10 05:16:23;;;;;;;;;5.00;5.00;;;;;10.48;81.98;101845.91;5051161;28;9909;-63
2022/11/10 05:19:07;;;;;;;;;5.00;3.25;;;;;10.43;81.99;101842.88;5051822;28;9926;-63
2022/11/10 05:21:52;;;;;;;;;3.50;2.75;;;;;10.44;82.24;101838.34;5046660;28;9936;-62
2022/11/10 05:24:37;;;;;;;;;1.00;1.00;;;;;10.45;82.24;101838.19;5038296;28;9742;-63
2022/11/10 05:27:22;;;;;;;;;4.50;4.50;;;;;10.42;82.39;101848.47;5045084;28;9880;-65
2022/11/10 05:30:07;;;;;;;;;6.00;5.00;;;;;10.45;82.64;101845.41;5050618;28;9865;-64
2022/11/10 05:32:52;;;;;;;;;3.00;1.50;;;;;10.43;82.35;101855.50;5042723;28;10003;-64
2022/11/10 05:35:38;;;;;;;;;7.00;2.00;;;;;10.38;82.75;101847.94;5050098;28;10036;-64
2022/11/10 05:38:23;;;;;;;;;2.00;1.00;;;;;10.43;82.31;101848.28;5051104;28;9906;-65
2022/11/10 05:41:08;;;;;;;;;5.00;2.00;;;;;10.39;82.55;101855.84;5047758;28;9908;-64
2022/11/10 05:43:53;;;;;;;;;1.75;1.50;;;;;10.43;82.51;101847.44;5044065;28;9983;-65
2022/11/10 05:46:38;;;;;;;;;4.50;4.50;;;;;10.38;82.47;101854.16;5050329;28;10072;-64
2022/11/10 05:49:23;;;;;;;;;6.00;4.25;;;;;10.37;82.50;101862.38;5051183;28;10142;-64
2022/11/10 05:52:08;;;;;;;;;2.75;2.75;;;;;10.36;82.75;101858.03;5031577;28;10094;-65
2022/11/10 05:54:54;;;;;;;;;4.50;3.00;;;;;10.41;82.75;101874.50;5043807;28;10044;-65
2022/11/10 05:57:44;;;;;;;;;2.50;2.50;;;;;10.38;82.27;101867.63;5050155;28;10123;-64
2022/11/10 06:00:30;;;;;;;;;5.75;5.75;;;;;10.39;82.36;101871.16;5048958;28;10084;-66
2022/11/10 06:03:17;;;;;;;;;2.75;1.50;;;;;10.35;82.59;101873.34;5038408;28;10086;-64
2022/11/10 06:06:02;;;;;;;;;4.00;1.50;;;;;10.38;82.53;101883.78;5049323;28;9994;-66
2022/11/10 06:08:47;;;;;;;;;4.00;2.00;;;;;10.41;82.53;101901.41;5043423;28;9985;-65
2022/11/10 06:11:32;;;;;;;;;4.00;4.00;;;;;10.35;81.76;101900.25;5049659;28;10037;-66
2022/11/10 06:14:17;;;;;;;;;3.50;1.75;;;;;10.38;82.24;101904.47;5044074;28;10185;-67
2022/11/10 06:17:02;;;;;;;;;5.00;5.00;;;;;10.30;81.99;101907.16;5030830;28;9824;-66
2022/11/10 06:19:47;;;;;;;;;9.25;5.25;;;;;10.25;82.29;101914.84;5030713;28;10101;-66
2022/11/10 06:22:32;;;;;;;;;4.00;4.00;;;;;10.24;82.28;101915.84;5044041;28;10154;-65
2022/11/10 06:25:17;;;;;;;;;8.50;6.00;;;;;10.27;82.72;101910.16;5047385;28;10144;-66
2022/11/10 06:28:02;;;;;;;;;9.00;2.50;;;;;10.23;82.76;101916.84;5041981;28;10098;-66
2022/11/10 06:30:47;;;;;;;;;4.50;4.50;;;;;10.28;82.93;101917.22;5041501;28;10216;-67
2022/11/10 06:33:32;;;;;;;;;8.50;7.25;;;;;10.31;82.53;101927.66;5046350;28;10293;-66
2022/11/10 06:36:17;;;;;;;;;5.75;3.50;;;;;10.36;82.80;101928.00;5043551;28;10125;-66
2022/11/10 06:39:02;;;;;;;;;8.00;7.50;;;;;10.33;82.40;101931.03;5043181;28;10158;-63
2022/11/10 06:41:47;;;;;;;;;5.50;5.25;;;;;10.31;82.86;101941.97;5040715;28;10152;-66
2022/11/10 06:44:32;;;;;;;;;4.25;4.25;;;;;10.26;82.60;101954.25;5050051;28;10068;-65
2022/11/10 06:47:17;;;;;;;;;6.00;6.00;;;;;10.30;82.47;101966.34;5030675;28;10740;-65
2022/11/10 06:50:02;;;;;;;;;5.25;3.50;;;;;10.31;82.65;101968.03;5043837;28;10224;-66
2022/11/10 06:52:53;;;;;;;;;5.00;3.50;;;;;10.31;82.99;101981.50;5037453;28;10836;-65
2022/11/10 06:55:38;;;;;;;;;7.25;4.75;;;;;10.30;82.75;101979.81;5043537;28;10006;-66
2022/11/10 06:58:23;;;;;;;;;7.00;5.00;;;;;10.29;82.86;101995.13;5044833;28;10144;-65
2022/11/10 07:01:08;;;;;;;;;6.75;4.75;;;;;10.31;82.67;101992.25;5043533;28;9944;-66
2022/11/10 07:03:53;;;;;;;;;5.50;4.75;;;;;10.30;82.96;101974.44;5043511;28;10063;-66
2022/11/10 07:06:58;;;;;;;;;3.50;2.50;;;;;10.31;82.90;101968.88;5042384;28;10633;-66
2022/11/10 07:09:43;;;;;;;;;8.00;5.00;;;;;10.28;82.64;101976.44;5043800;28;9913;-66
2022/11/10 07:12:27;;;;;;;;;6.75;4.75;;;;;10.30;83.13;101979.81;5052414;28;10197;-65
2022/11/10 07:15:12;;;;;;;;;9.75;6.00;;;;;10.31;83.01;101971.56;5051760;28;10010;-66
2022/11/10 07:17:57;;;;;;;;;5.00;3.25;;;;;10.33;83.02;101969.56;5033721;28;10025;-66
2022/11/10 07:20:42;;;;;;;;;8.00;6.00;;;;;10.32;82.72;101984.00;5033729;28;10274;-66
2022/11/10 07:23:27;;;;;;;;;9.75;8.00;;;;;10.22;83.07;101979.75;5033906;28;10108;-66
2022/11/10 07:26:12;;;;;;;;;5.00;4.00;;;;;10.22;82.98;101969.84;5047584;28;10168;-66
2022/11/10 07:28:57;;;;;;;;;5.00;4.50;;;;;10.26;83.11;101987.38;5053665;28;9919;-66
2022/11/10 07:31:42;;;;;;;;;5.50;4.50;;;;;10.28;83.11;101979.97;5053350;28;10673;-65
2022/11/10 07:34:27;;;;;;;;;5.25;5.25;;;;;10.30;82.75;101990.56;5053472;28;10176;-66
2022/11/10 07:37:11;;;;;;;;;6.00;6.00;;;;;10.27;82.98;101996.28;5033364;28;10683;-65
2022/11/10 07:39:56;;;;;;;;;10.75;7.25;;;;;10.30;83.26;102004.88;5033575;28;9958;-66
2022/11/10 07:42:41;;;;;;;;;5.25;5.00;;;;;10.35;83.16;102015.16;5043460;28;9953;-66
2022/11/10 07:45:26;;;;;;;;;4.50;4.50;;;;;10.39;83.15;102009.25;5052504;28;9927;-65
2022/11/10 07:48:13;;;;;;;;;5.75;5.00;;;;;10.40;82.83;102005.56;5053111;28;9948;-66
2022/11/10 07:50:57;;;;;;;;;5.50;5.50;;;;;10.46;83.44;102006.78;5041461;28;9847;-66
2022/11/10 07:53:43;;;;;;;;;5.50;4.50;;;;;10.51;83.28;102022.41;5033108;28;9869;-66
2022/11/10 07:56:27;;;;;;;;;4.50;4.50;;;;;10.53;83.04;102026.66;5051317;28;9842;-66
2022/11/10 07:59:13;;;;;;;;;2.00;2.00;;;;;10.65;83.04;102011.00;5052472;28;9950;-66
2022/11/10 08:01:58;;;;;;;;;6.75;4.00;;;;;10.74;83.34;102011.88;5040425;28;9669;-66
2022/11/10 08:04:44;;;;;;;;;3.25;3.25;;;;;10.80;82.69;102020.09;5053340;28;9852;-66
2022/11/10 08:07:29;;;;;;;;;4.50;3.00;;;;;10.74;82.91;102023.47;5054064;28;9986;-65
2022/11/10 08:10:15;;;;;;;;;3.50;2.50;;;;;10.78;82.88;102032.06;5047719;28;9854;-66
2022/11/10 08:13:02;;;;;;;;;7.25;2.25;;;;;10.87;82.59;102037.28;5032918;28;9944;-66
2022/11/10 08:15:47;;;;;;;;;4.00;3.00;;;;;10.94;82.50;102047.38;5042157;28;9933;-65
2022/11/10 08:18:32;;;;;;;;;5.25;5.25;;;;;10.83;82.32;102044.03;5050498;28;9833;-66
2022/11/10 08:21:19;;;;;;;;;7.75;4.25;;;;;10.83;82.61;102057.50;5036804;28;9923;-66
2022/11/10 08:24:04;;;;;;;;;3.00;2.75;;;;;10.89;82.93;102056.81;5032720;28;10547;-66
2022/11/10 08:26:49;;;;;;;;;5.00;4.00;;;;;10.94;82.78;102063.53;5051290;28;9854;-66
2022/11/10 08:29:34;;;;;;;;;6.25;4.00;;;;;10.89;82.50;102059.50;5051928;28;9845;-66
2022/11/10 08:32:20;;;;;;;;;5.00;5.00;;;;;10.91;82.86;102061.22;5050762;28;9754;-67
2022/11/10 08:35:05;;;;;;;;;5.75;4.00;;;;;10.97;82.92;102065.91;5052253;28;9900;-66
2022/11/10 08:37:50;;;;;;;;;2.25;2.25;;;;;11.01;82.86;102060.03;5052917;28;10556;-65
2022/11/10 08:40:36;;;;;;;;;5.00;4.50;;;;;11.04;82.50;102075.88;5042036;28;9847;-66
2022/11/10 08:43:22;;;;;;;;;5.25;3.50;;;;;11.01;82.39;102084.28;5032093;28;9847;-65
2022/11/10 08:46:07;;;;;;;;;4.00;2.00;;;;;11.03;82.24;102089.50;5050519;28;9913;-66
2022/11/10 08:48:52;;;;;;;;;5.00;5.00;;;;;11.01;82.56;102091.50;5032721;28;9747;-66
2022/11/10 08:51:37;;;;;;;;;5.00;3.00;;;;;11.00;82.98;102109.53;5048221;28;10496;-66
2022/11/10 08:54:23;;;;;;;;;7.00;6.00;;;;;11.00;83.00;102096.06;5052017;28;9684;-67
2022/11/10 08:57:08;;;;;;;;;8.00;6.00;;;;;11.07;82.60;102083.63;5042496;28;9687;-67
2022/11/10 08:59:52;;;;;;;;;5.25;3.50;;;;;11.21;83.02;102090.19;5051043;28;10050;-67
2022/11/10 09:02:37;;;;;;;;;4.00;4.00;;;;;11.35;82.77;102084.13;5051913;28;9693;-67
2022/11/10 09:05:22;;;;;;;;;8.25;6.00;;;;;11.44;82.52;102082.28;5045055;28;9671;-67
2022/11/10 09:08:08;;;;;;;;;2.50;2.50;;;;;11.63;82.53;102090.00;5031930;28;9922;-67
2022/11/10 09:10:53;;;;;;;;;8.00;4.00;;;;;11.76;81.85;102094.88;5045952;28;9855;-67
2022/11/10 09:13:38;;;;;;;;;6.50;5.25;;;;;11.82;81.43;102102.28;5051665;28;9604;-67
2022/11/10 09:16:23;;;;;;;;;6.00;6.00;;;;;11.74;81.30;102093.34;5050548;28;10428;-67
2022/11/10 09:19:08;;;;;;;;;8.50;4.50;;;;;11.70;81.42;102095.53;5051398;28;9831;-67
2022/11/10 09:21:53;;;;;;;;;6.00;5.00;;;;;11.71;81.66;102099.94;5051063;28;9849;-67
2022/11/10 09:24:38;;;;;;;;;3.00;0.50;;;;;11.79;81.35;102097.25;5050594;28;9725;-67
2022/11/10 09:27:23;;;;;;;;;5.25;3.00;;;;;11.78;81.53;102105.50;5031336;28;9587;-66
2022/11/10 09:30:08;;;;;;;;;7.75;5.00;;;;;11.76;81.52;102111.06;5035110;28;9608;-67
2022/11/10 09:33:01;;;;;;;;;4.00;4.00;;;;;11.81;81.94;102108.69;5030289;28;9637;-66
2022/11/10 09:35:46;;;;;;;;;2.50;2.50;;;;;11.83;82.06;102111.25;5031779;28;9447;-69
2022/11/10 09:38:32;;;;;;;;;7.25;6.75;;;;;11.96;81.73;102108.03;5031378;28;9710;-66
2022/11/10 09:41:17;;;;;;;;;8.00;4.75;;;;;12.02;81.20;102116.25;5043680;28;9755;-67
2022/11/10 09:44:11;;;;;;;;;5.00;4.50;;;;;12.09;81.05;102133.47;5050586;28;9628;-67
2022/11/10 09:47:01;;;;;;;;;2.75;2.00;;;;;12.12;80.93;102140.38;5050267;28;9519;-67
2022/11/10 09:49:55;;;;;;;;;4.75;4.75;;;;;12.01;81.19;102129.94;5048957;28;9514;-67
2022/11/10 09:52:42;;;;;;;;;2.00;2.00;;;;;12.04;81.25;102153.88;5049717;28;10286;-67
2022/11/10 09:55:54;;;;;;;;;3.00;2.25;;;;;12.07;81.12;102154.41;5047380;28;9559;-66
2022/11/10 09:58:42;;;;;;;;;11.25;6.00;;;;;12.10;81.12;102159.44;5048365;28;9638;-67
2022/11/10 10:01:42;;;;;;;;;4.00;4.00;;;;;12.08;81.27;102172.25;5049628;28;9578;-67
2022/11/10 10:04:57;;;;;;;;;2.50;2.50;;;;;12.18;81.40;102177.47;5050525;28;9434;-67
2022/11/10 10:08:05;;;;;;;;;4.00;2.00;;;;;12.13;81.39;102188.78;5049796;28;9369;-67
2022/11/10 10:11:03;;;;;;;;;5.00;3.50;;;;;12.12;81.60;102186.25;5049950;28;9305;-67
2022/11/10 10:14:08;;;;;;;;;4.75;4.75;;;;;12.12;81.66;102187.09;5050262;28;9435;-66
2022/11/10 10:17:37;;;;;;;;;4.50;4.50;;;;;12.17;81.69;102183.03;5049867;28;9474;-67
2022/11/10 10:20:50;;;;;;;;;5.50;4.00;;;;;12.29;81.34;102187.91;5034364;28;9689;-67
2022/11/10 10:23:42;;;;;;;;;3.67;3.67;;;;;12.32;81.12;102189.44;5030562;28;9579;-66
2022/11/10 10:26:56;;;;;;;;;4.50;2.25;;;;;12.40;81.27;102186.72;5048912;28;9380;-67
2022/11/10 10:29:48;;;;;;;;;6.50;3.00;;;;;12.39;81.18;102187.69;5048845;28;9456;-67
2022/11/10 10:32:33;;;;;;;;;2.75;1.75;;;;;12.45;81.26;102178.91;5050366;28;9536;-66
2022/11/10 10:35:18;;;;;;;;;6.00;2.33;;;;;12.53;81.16;102191.56;5044614;28;9525;-69
2022/11/10 10:38:11;;;;;;;;;2.67;2.67;;;;;12.55;80.99;102186.81;5030373;28;9379;-66
2022/11/10 10:41:02;;;;;;;;;4.00;2.00;;;;;12.54;80.81;102187.84;5041141;28;9372;-67
2022/11/10 10:43:50;;;;;;;;;3.67;3.67;;;;;12.62;80.83;102190.50;5049687;28;9428;-67
2022/11/10 10:46:47;;;;;;;;;4.00;2.00;;;;;12.62;80.56;102207.56;5049755;28;9383;-67
2022/11/10 10:49:33;;;;;;;;;2.33;2.00;;;;;12.57;80.87;102206.41;5050167;28;9738;-67
2022/11/10 10:52:23;;;;;;;;;1.75;1.75;;;;;12.53;81.10;102203.19;5030179;28;9290;-67
2022/11/10 10:55:11;;;;;;;;;2.33;2.33;;;;;12.57;81.00;102209.09;5030766;28;9451;-68
2022/11/10 10:58:03;;;;;;;;;4.67;2.67;;;;;12.58;81.25;102203.50;5030245;28;9532;-67
2022/11/10 11:01:00;;;;;;;;;3.33;3.33;;;;;12.67;81.00;102204.31;5040282;28;9436;-67
2022/11/10 11:03:48;;;;;;;;;2.00;2.00;;;;;12.76;80.91;102226.75;5049746;28;9338;-67
2022/11/10 11:06:34;;;;;;;;;6.00;3.00;;;;;12.76;80.82;102221.34;5049444;28;9285;-68
2022/11/10 11:09:41;;;;;;;;;5.50;3.50;;;;;12.69;81.24;102232.03;5050114;28;9365;-67
2022/11/10 11:12:30;;;;;;;;;5.25;5.25;;;;;12.64;81.48;102231.72;5030069;28;9457;-69
2022/11/10 11:15:30;;;;;;;;;3.00;3.00;;;;;12.68;81.81;102238.44;5035408;28;9530;-67
2022/11/10 11:18:17;;;;;;;;;3.33;3.33;;;;;12.80;81.40;102250.56;5028787;28;10066;-67
2022/11/10 11:21:07;;;;;;;;;3.00;3.00;;;;;12.81;81.54;102246.84;5030304;28;9395;-67
2022/11/10 11:24:15;;;;;;;;;4.00;2.67;;;;;12.92;81.16;102239.34;5030164;28;10154;-67
2022/11/10 11:27:04;;;;;;;;;2.67;2.67;;;;;13.00;80.82;102252.81;5050229;28;10017;-67
2022/11/10 11:30:08;;;;;;;;;1.67;1.67;;;;;13.03;80.71;102257.88;5044071;28;9915;-67
2022/11/10 11:33:05;;;;;;;;;2.33;2.33;;;;;13.01;80.45;102262.66;5030160;28;9322;-67
2022/11/10 11:36:23;;;;;;;;;7.00;6.00;;;;;13.01;80.38;102270.75;5040091;28;9310;-66
2022/11/10 11:39:29;;;;;;;;;1.00;1.00;;;;;13.05;80.29;102278.34;5030582;28;9475;-67
2022/11/10 11:42:27;;;;;;;;;3.00;2.00;;;;;13.11;79.88;102276.78;5030741;28;9231;-66
2022/11/10 11:45:21;;;;;;;;;6.00;4.00;;;;;13.08;80.07;102274.41;5034640;28;9150;-66
2022/11/10 11:48:18;;;;;;;;;4.33;2.00;;;;;13.00;80.51;102279.84;5049916;28;9161;-66
2022/11/10 11:51:17;;;;;;;;;7.67;3.33;;;;;13.06;80.20;102274.59;5037522;28;9286;-66
2022/11/10 11:54:19;;;;;;;;;4.00;1.67;;;;;13.10;79.96;102262.41;5030722;28;9544;-65
2022/11/10 11:57:30;;;;;;;;;5.67;3.33;;;;;13.16;79.74;102278.94;5051339;28;9063;-65
2022/11/10 12:00:22;;;;;;;;;3.00;3.00;;;;;13.12;79.65;102275.75;5052627;28;9062;-66
2022/11/10 12:03:46;;;;;;;;;3.33;2.00;;;;;13.21;79.09;102272.00;5053373;28;9229;-65
2022/11/10 12:07:01;;;;;;;;;4.33;4.00;;;;;13.30;79.24;102262.03;5036573;28;9267;-65
2022/11/10 12:09:49;;;;;;;;;2.67;2.00;;;;;13.32;79.01;102259.97;5037750;28;9447;-66
2022/11/10 12:12:57;;;;;;;;;2.00;2.00;;;;;13.25;79.18;102265.25;5032893;28;9339;-66
2022/11/10 12:16:01;;;;;;;;;5.00;4.33;;;;;13.32;79.33;102270.78;5042301;28;9321;-65
2022/11/10 12:19:08;;;;;;;;;5.00;2.33;;;;;13.33;79.00;102288.72;5032885;28;9297;-67
2022/11/10 12:22:02;;;;;;;;;4.00;1.67;;;;;13.31;78.97;102283.47;5051394;28;9174;-66
2022/11/10 12:25:17;;;;;;;;;1.67;1.67;;;;;13.25;78.83;102286.06;5050537;28;9778;-67
2022/11/10 12:28:22;;;;;;;;;5.33;5.33;;;;;13.26;78.91;102287.72;5051230;28;9161;-67
2022/11/10 12:31:17;;;;;;;;;1.33;1.33;;;;;13.26;78.90;102291.28;5050898;28;10132;-65
2022/11/10 12:34:29;;;;;;;;;4.33;3.00;;;;;13.28;79.26;102294.63;5052524;28;9258;-66
2022/11/10 12:37:21;;;;;;;;;3.67;1.67;;;;;13.26;79.26;102293.16;5029686;28;9308;-66
2022/11/10 12:40:19;;;;;;;;;2.33;2.33;;;;;13.27;79.19;102292.13;5037040;28;9180;-66
2022/11/10 12:43:17;;;;;;;;;2.00;2.00;;;;;13.27;78.98;102284.00;5046817;28;9432;-65
2022/11/10 12:46:08;;;;;;;;;4.33;2.00;;;;;13.21;79.32;102296.34;5051515;28;9296;-66
2022/11/10 12:48:55;;;;;;;;;2.33;2.00;;;;;13.16;79.40;102295.16;5052156;28;9311;-66
2022/11/10 12:52:11;;;;;;;;;5.00;3.33;;;;;13.19;79.41;102297.53;5034209;28;9242;-66
2022/11/10 12:54:58;;;;;;;;;2.00;1.00;;;;;13.21;79.23;102290.94;5032860;28;9948;-64
2022/11/10 12:57:44;;;;;;;;;6.00;4.00;;;;;13.11;79.87;102284.88;5032540;28;9219;-66
2022/11/10 13:00:36;;;;;;;;;2.00;2.00;;;;;13.19;79.46;102287.56;5039079;28;9150;-66
2022/11/10 13:03:30;;;;;;;;;2.33;1.00;;;;;13.23;79.58;102270.00;5037772;28;9312;-65
2022/11/10 13:06:25;;;;;;;;;5.00;2.00;;;;;13.28;79.16;102275.69;5044976;28;9303;-66
2022/11/10 13:09:29;;;;;;;;;4.67;4.33;;;;;13.28;79.13;102269.47;5051844;28;9235;-66
2022/11/10 13:12:20;;;;;;;;;2.00;1.33;;;;;13.29;79.38;102276.56;5039567;28;9303;-66
2022/11/10 13:15:34;;;;;;;;;6.33;3.67;;;;;13.38;78.95;102286.31;5050005;28;9064;-65
2022/11/10 13:18:31;;;;;;;;;1.33;1.00;;;;;13.32;79.07;102279.75;5051594;28;9235;-66
2022/11/10 13:21:16;;;;;;;;;3.67;2.33;;;;;13.40;78.89;102278.84;5043854;28;9230;-66
2022/11/10 13:24:01;;;;;;;;;5.00;2.00;;;;;13.35;78.60;102281.25;5051677;28;9950;-66
2022/11/10 13:26:56;;;;;;;;;5.00;3.00;;;;;13.40;78.36;102289.69;5050813;28;9170;-66